createdAt,value
2023-05-21T00:01:23.593Z,7.13
2023-05-21T00:05:26.708Z,7.45
2023-05-21T00:09:29.930Z,7.60
2023-05-21T00:13:34.492Z,8.30
2023-05-21T00:17:37.930Z,8.07
2023-05-21T00:21:41.143Z,7.78
2023-05-21T00:25:44.273Z,7.40
2023-05-21T00:29:48.607Z,7.55
2023-05-21T00:33:52.461Z,8.57
2023-05-21T00:37:55.466Z,8.18
2023-05-21T00:41:58.593Z,6.78
2023-05-21T00:46:03.112Z,7.25
2023-05-21T00:50:07.563Z,7.20
2023-05-21T00:54:10.628Z,7.18
2023-05-21T00:58:14.283Z,7.55
2023-05-21T01:02:18.984Z,7.63
2023-05-21T01:06:22.072Z,7.97
2023-05-21T01:10:25.591Z,7.97
2023-05-21T01:14:29.014Z,7.00
2023-05-21T01:18:35.165Z,6.07
2023-05-21T01:22:43.592Z,6.50
2023-05-21T01:26:48.445Z,7.00
2023-05-21T01:30:51.853Z,7.88
2023-05-21T01:35:00.955Z,5.90
2023-05-21T01:39:10.140Z,7.35
2023-05-21T01:43:16.285Z,6.90
2023-05-21T01:47:19.971Z,7.05
2023-05-21T01:51:23.263Z,6.43
2023-05-21T01:55:26.999Z,5.43
2023-05-21T01:59:31.958Z,6.00
2023-05-21T02:03:35.198Z,7.22
2023-05-21T02:07:38.692Z,7.78
2023-05-21T02:11:41.933Z,7.32
2023-05-21T02:15:47.122Z,7.45
2023-05-21T02:19:50.230Z,8.30
2023-05-21T02:23:53.202Z,6.13
2023-05-21T02:27:56.839Z,7.05
2023-05-21T02:32:01.402Z,7.28
2023-05-21T02:36:05.175Z,8.13
2023-05-21T02:40:10.025Z,8.52
2023-05-21T02:44:13.388Z,8.73
2023-05-21T02:48:17.914Z,7.70
2023-05-21T02:52:22.259Z,7.38
2023-05-21T02:56:26.247Z,7.45
2023-05-21T03:00:29.410Z,8.50
2023-05-21T03:04:39.263Z,8.50
2023-05-21T03:08:42.432Z,8.07
2023-05-21T03:12:45.717Z,7.85
2023-05-21T03:16:49.195Z,7.70
2023-05-21T03:20:55.552Z,7.30
2023-05-21T03:24:58.793Z,8.23
2023-05-21T03:29:02.469Z,8.05
2023-05-21T03:33:06.571Z,7.47
2023-05-21T03:37:11.525Z,8.68
2023-05-21T03:41:14.770Z,7.57
2023-05-21T03:45:21.676Z,8.07
2023-05-21T03:49:38.682Z,8.15
2023-05-21T03:53:44.000Z,7.88
2023-05-21T03:57:47.088Z,7.40
2023-05-21T04:01:51.443Z,8.13
2023-05-21T04:05:54.572Z,7.63
2023-05-21T04:09:59.004Z,8.02
2023-05-21T04:14:02.923Z,7.90
2023-05-21T04:18:07.328Z,8.18
2023-05-21T04:22:11.595Z,7.78
2023-05-21T04:26:16.830Z,7.90
2023-05-21T04:30:20.140Z,7.57
2023-05-21T04:34:23.703Z,8.05
2023-05-21T04:38:26.844Z,7.50
2023-05-21T04:42:33.062Z,7.55
2023-05-21T04:46:39.676Z,8.82
2023-05-21T04:50:44.873Z,7.45
2023-05-21T04:54:48.008Z,7.85
2023-05-21T04:58:52.905Z,7.88
2023-05-21T05:02:56.485Z,7.80
2023-05-21T05:06:59.614Z,7.88
2023-05-21T05:11:02.981Z,6.68
2023-05-21T05:15:08.669Z,8.23
2023-05-21T05:19:12.909Z,8.15
2023-05-21T05:23:16.338Z,8.38
2023-05-21T05:27:19.504Z,7.85
2023-05-21T05:31:24.271Z,8.02
2023-05-21T05:35:28.869Z,7.75
2023-05-21T05:39:32.889Z,7.80
2023-05-21T05:43:36.672Z,7.30
2023-05-21T05:47:41.727Z,7.38
2023-05-21T05:51:45.160Z,6.85
2023-05-21T05:55:48.345Z,6.78
2023-05-21T05:59:51.684Z,6.93
2023-05-21T06:03:57.422Z,6.40
2023-05-21T06:08:01.560Z,6.00
2023-05-21T06:12:05.064Z,6.88
2023-05-21T06:16:10.066Z,6.28
2023-05-21T06:20:15.078Z,6.82
2023-05-21T06:24:18.447Z,6.78
2023-05-21T06:28:21.699Z,6.13
2023-05-21T06:32:26.598Z,5.80
2023-05-21T06:36:32.538Z,5.72
2023-05-21T06:40:36.330Z,5.50
2023-05-21T06:44:39.745Z,5.80
2023-05-21T06:49:14.499Z,5.30
2023-05-21T06:53:20.336Z,5.35
2023-05-21T06:57:23.380Z,5.25
2023-05-21T07:01:26.526Z,5.43
2023-05-21T07:05:30.813Z,5.50
2023-05-21T07:09:35.256Z,5.20
2023-05-21T07:13:38.456Z,4.95
2023-05-21T07:17:41.728Z,4.90
2023-05-21T07:21:44.959Z,5.65
2023-05-21T07:25:49.548Z,4.85
2023-05-21T07:29:52.994Z,6.05
2023-05-21T07:33:59.021Z,5.30
2023-05-21T07:38:07.699Z,4.90
2023-05-21T07:42:12.157Z,5.30
2023-05-21T07:46:15.467Z,5.72
2023-05-21T07:50:19.416Z,5.25
2023-05-21T07:54:22.615Z,5.20
2023-05-21T07:58:27.170Z,5.10
2023-05-21T08:02:30.574Z,5.05
2023-05-21T08:06:34.674Z,5.10
2023-05-21T08:10:37.982Z,5.15
2023-05-21T08:14:42.721Z,5.00
2023-05-21T08:18:47.829Z,4.90
2023-05-21T08:22:51.190Z,4.78
2023-05-21T08:26:54.435Z,5.07
2023-05-21T08:30:59.028Z,4.82
2023-05-21T08:35:02.497Z,4.75
2023-05-21T08:39:29.788Z,4.38
2023-05-21T08:43:34.719Z,4.75
2023-05-21T08:47:43.165Z,4.05
2023-05-21T08:51:48.111Z,3.97
2023-05-21T08:55:55.736Z,3.80
2023-05-21T08:59:59.276Z,4.05
2023-05-21T09:04:19.469Z,4.00
2023-05-21T09:08:30.918Z,4.95
2023-05-21T09:12:41.592Z,3.67
2023-05-21T09:16:48.242Z,3.90
2023-05-21T09:20:54.091Z,4.22
2023-05-21T09:24:58.297Z,3.95
2023-05-21T09:29:02.305Z,4.10
2023-05-21T09:33:06.089Z,4.18
2023-05-21T09:37:23.784Z,4.00
2023-05-21T09:41:36.837Z,3.78
2023-05-21T09:45:52.606Z,4.13
2023-05-21T09:49:59.476Z,4.22
2023-05-21T09:54:04.620Z,4.00
2023-05-21T09:58:07.681Z,4.32
2023-05-21T10:02:19.194Z,4.75
2023-05-21T10:06:25.349Z,4.30
2023-05-21T10:10:31.043Z,5.10
2023-05-21T10:14:35.963Z,4.15
2023-05-21T10:18:40.340Z,4.50
2023-05-21T10:22:43.772Z,4.00
2023-05-21T10:26:49.104Z,4.35
2023-05-21T10:30:53.576Z,4.45
2023-05-21T10:34:59.418Z,4.18
2023-05-21T10:39:05.158Z,4.25
2023-05-21T10:43:23.047Z,4.10
2023-05-21T10:48:09.820Z,4.55
2023-05-21T10:52:26.139Z,4.00
2023-05-21T10:56:34.130Z,3.97
2023-05-21T11:00:39.247Z,3.83
2023-05-21T11:04:45.597Z,4.18
2023-05-21T11:08:49.268Z,3.97
2023-05-21T11:13:08.242Z,3.92
2023-05-21T11:17:14.663Z,4.63
2023-05-21T11:21:19.625Z,4.13
2023-05-21T11:25:22.761Z,3.88
2023-05-21T11:29:33.428Z,3.78
2023-05-21T11:33:37.892Z,4.00
2023-05-21T11:37:41.777Z,4.28
2023-05-21T11:41:52.693Z,3.58
2023-05-21T11:45:56.307Z,4.45
2023-05-21T11:50:03.095Z,4.00
2023-05-21T11:54:06.226Z,4.18
2023-05-21T11:58:10.753Z,4.25
2023-05-21T12:02:16.804Z,3.88
2023-05-21T12:06:27.805Z,4.20
2023-05-21T12:10:31.206Z,4.13
2023-05-21T12:14:34.467Z,4.07
2023-05-21T12:18:38.177Z,4.00
2023-05-21T12:22:44.323Z,3.95
2023-05-21T12:26:48.030Z,3.75
2023-05-21T12:30:51.254Z,3.63
2023-05-21T12:34:55.629Z,4.20
2023-05-21T12:39:00.634Z,3.72
2023-05-21T12:43:04.157Z,3.38
2023-05-21T12:47:07.907Z,4.22
2023-05-21T12:51:10.959Z,3.55
2023-05-21T12:55:16.089Z,3.38
2023-05-21T12:59:19.131Z,3.63
2023-05-21T13:03:24.889Z,3.22
2023-05-21T13:07:29.234Z,3.78
2023-05-21T13:11:33.658Z,3.67
2023-05-21T13:15:36.913Z,3.15
2023-05-21T13:19:39.973Z,3.35
2023-05-21T13:23:43.005Z,3.03
2023-05-21T13:27:48.001Z,3.30
2023-05-21T13:31:51.145Z,3.00
2023-05-21T13:35:54.179Z,3.10
2023-05-21T13:39:57.702Z,3.38
2023-05-21T13:44:02.314Z,3.15
2023-05-21T13:48:05.927Z,3.60
2023-05-21T13:52:09.682Z,3.55
2023-05-21T13:56:12.882Z,3.92
2023-05-21T14:00:17.379Z,3.17
2023-05-21T14:04:21.499Z,3.10
2023-05-21T14:08:27.565Z,3.35
2023-05-21T14:12:31.076Z,3.60
2023-05-21T14:16:35.626Z,3.30
2023-05-21T14:20:38.755Z,3.25
2023-05-21T14:24:41.794Z,3.08
2023-05-21T14:28:45.520Z,3.13
2023-05-21T14:32:50.090Z,3.35
2023-05-21T14:36:53.141Z,3.05
2023-05-21T14:40:56.652Z,3.30
2023-05-21T14:44:59.802Z,3.08
2023-05-21T14:49:04.294Z,3.30
2023-05-21T14:53:07.615Z,3.30
2023-05-21T14:57:10.860Z,3.30
2023-05-21T15:01:14.040Z,3.40
2023-05-21T15:05:19.323Z,3.10
2023-05-21T15:09:22.430Z,2.95
2023-05-21T15:13:27.191Z,3.05
2023-05-21T15:17:30.366Z,3.28
2023-05-21T15:21:34.832Z,3.38
2023-05-21T15:25:38.005Z,3.00
2023-05-21T15:29:41.200Z,2.70
2023-05-21T15:33:44.235Z,2.70
2023-05-21T15:37:48.707Z,3.17
2023-05-21T15:41:53.542Z,3.10
2023-05-21T15:45:56.584Z,3.10
2023-05-21T15:50:00.463Z,3.33
2023-05-21T15:54:05.167Z,3.28
2023-05-21T15:58:08.298Z,3.13
2023-05-21T16:02:11.352Z,2.85
2023-05-21T16:06:14.417Z,3.30
2023-05-21T16:10:19.046Z,3.20
2023-05-21T16:14:23.637Z,2.85
2023-05-21T16:18:26.730Z,3.25
2023-05-21T16:22:29.813Z,3.22
2023-05-21T16:26:34.240Z,3.15
2023-05-21T16:30:37.250Z,3.25
2023-05-21T16:34:40.346Z,3.38
2023-05-21T16:38:44.381Z,3.10
2023-05-21T16:42:48.879Z,3.42
2023-05-21T16:46:51.898Z,3.20
2023-05-21T16:50:55.449Z,3.53
2023-05-21T16:54:58.523Z,3.40
2023-05-21T16:59:03.018Z,3.20
2023-05-21T17:03:06.345Z,3.53
2023-05-21T17:07:09.415Z,3.30
2023-05-21T17:11:12.516Z,3.17
2023-05-21T17:15:17.128Z,3.10
2023-05-21T17:19:23.218Z,3.30
2023-05-21T17:23:26.354Z,3.17
2023-05-21T17:27:29.396Z,3.20
2023-05-21T17:31:33.936Z,3.22
2023-05-21T17:35:37.368Z,3.33
2023-05-21T17:39:42.349Z,3.70
2023-05-21T17:43:45.663Z,3.70
2023-05-21T17:47:50.233Z,3.63
2023-05-21T17:51:54.027Z,3.10
2023-05-21T17:55:57.065Z,3.20
2023-05-21T18:00:00.155Z,3.40
2023-05-21T18:04:05.670Z,3.45
2023-05-21T18:08:09.981Z,3.42
2023-05-21T18:12:13.013Z,3.55
2023-05-21T18:16:16.283Z,3.45
2023-05-21T18:20:20.821Z,3.65
2023-05-21T18:24:23.850Z,3.05
2023-05-21T18:28:27.573Z,3.67
2023-05-21T18:32:30.734Z,3.35
2023-05-21T18:36:38.854Z,3.80
2023-05-21T18:40:41.938Z,3.60
2023-05-21T18:44:46.075Z,3.85
2023-05-21T18:48:49.573Z,3.58
2023-05-21T18:52:55.440Z,4.15
2023-05-21T18:57:00.452Z,4.20
2023-05-21T19:01:03.725Z,4.03
2023-05-21T19:05:08.102Z,4.03
2023-05-21T19:09:19.005Z,4.20
2023-05-21T19:13:26.301Z,4.53
2023-05-21T19:17:29.533Z,4.10
2023-05-21T19:21:32.779Z,4.00
2023-05-21T19:25:37.279Z,4.10
2023-05-21T19:29:40.385Z,3.33
2023-05-21T19:33:43.499Z,3.50
2023-05-21T19:37:47.184Z,3.38
2023-05-21T19:41:52.965Z,3.88
2023-05-21T19:45:56.083Z,4.07
2023-05-21T19:49:59.145Z,3.40
2023-05-21T19:54:02.396Z,3.58
2023-05-21T19:58:06.826Z,3.47
2023-05-21T20:02:15.088Z,3.63
2023-05-21T20:06:20.550Z,3.88
2023-05-21T20:10:23.646Z,4.13
2023-05-21T20:14:28.064Z,4.07
2023-05-21T20:18:31.262Z,3.92
2023-05-21T20:22:34.283Z,3.92
2023-05-21T20:26:37.289Z,3.72
2023-05-21T20:30:55.216Z,4.20
2023-05-21T20:35:03.375Z,3.83
2023-05-21T20:39:07.098Z,3.63
2023-05-21T20:43:11.989Z,3.55
2023-05-21T20:47:16.452Z,3.17
2023-05-21T20:51:19.493Z,3.20
2023-05-21T20:55:22.764Z,3.58
2023-05-21T20:59:26.945Z,3.67
2023-05-21T21:03:34.381Z,3.40
2023-05-21T21:07:37.709Z,3.50
2023-05-21T21:11:40.832Z,3.70
2023-05-21T21:15:44.271Z,3.72
2023-05-21T21:19:48.840Z,4.30
2023-05-21T21:23:51.883Z,3.53
2023-05-21T21:27:54.934Z,3.78
2023-05-21T21:31:58.602Z,3.75
2023-05-21T21:36:03.013Z,3.72
2023-05-21T21:40:07.378Z,3.67
2023-05-21T21:44:10.512Z,3.42
2023-05-21T21:48:13.560Z,3.42
2023-05-21T21:52:18.928Z,4.03
2023-05-21T21:56:22.113Z,3.95
2023-05-21T22:00:26.885Z,3.40
2023-05-21T22:04:30.116Z,3.97
2023-05-21T22:08:34.568Z,3.70
2023-05-21T22:12:37.663Z,3.80
2023-05-21T22:16:41.581Z,3.85
2023-05-21T22:20:46.100Z,4.10
2023-05-21T22:24:50.532Z,3.75
2023-05-21T22:28:54.008Z,3.97
2023-05-21T22:32:57.821Z,3.95
2023-05-21T22:37:01.423Z,3.78
2023-05-21T22:41:05.838Z,3.90
2023-05-21T22:45:09.731Z,4.03
2023-05-21T22:49:12.775Z,4.50
2023-05-21T22:53:15.776Z,4.05
2023-05-21T22:57:20.237Z,4.13
2023-05-21T23:01:23.980Z,4.05
2023-05-21T23:05:27.092Z,4.60
2023-05-21T23:09:30.223Z,4.57
2023-05-21T23:13:34.717Z,4.43
2023-05-21T23:17:38.101Z,3.88
2023-05-21T23:21:41.653Z,4.20
2023-05-21T23:25:44.849Z,4.10
2023-05-21T23:29:49.311Z,4.10
2023-05-21T23:33:52.578Z,4.30
2023-05-21T23:37:55.777Z,4.18
2023-05-21T23:41:58.958Z,3.83
2023-05-21T23:46:03.428Z,3.67
2023-05-21T23:50:07.880Z,4.35
2023-05-21T23:54:10.970Z,4.70
2023-05-21T23:58:14.057Z,4.18
